メインページ
METAR-TAF:

METAR-TAF

空港 :

ポートモレスビー・ジャクソン国際空港

ポートモレスビー, パプアニューギニア

緯度: 09-26S, 経度: 147-13E, 海抜: 38m

現時点の気象観測

当レポートは32分前の04:00(UTC)に作成
南/南東の風 15kt、最大25ktの突風を伴う
気温 32°C
湿度 71%
気圧 1007 hPa
視程10km以上
高度2500ftの雲は散在している
高度3500ftの千切れ雲あり
煙霧,

METAR: AYPY 250400Z 15015G25KT 9999 HZ SCT025 BKN035 32/26 Q1007

時間: 14:32 (04:32 UTC)

予報

当レポートは5時間32分前の23:00(UTC)に作成
予報は25日の 00時(UTC)から 25日の 24時(UTC)まで有効
変向風 3kt
視程10km以上
高度2000ftの雲は散在している
高度14000ftの雲は散在している
25日の 0600時(UTC)から
の風 10kt
視程10km以上
高度1800ftの雲は散在している
高度12000ftの千切れ雲あり
弱いにわか雨,

TAF: AYPY 242300Z 2500/2524 VRB03KT 9999 SCT020 SCT140 FM250600 17010KT 9999 -SHRA SCT018 BKN120

4,000以上の空港の気象観測と天気予報(METAR報とTAF報)

利用可能な観測所は地図上に黄色い丸と赤い丸で示す。

丸の上にカーソルを重ねると観測所名を参照できる。

次にクリックすると気象観測と天気予報を参照できる。

マップの切り替え:黒色「×」印の緑ボタンをクリックして拡大、「-」印の緑ボタンをクリックして縮小、緑色の三角印をクリックして隣りの地図に切り替え


METAR-TAF: